Time;durP1;ratioP1;P1;durP2;ratioP2;P2;SDS_P1;SDS_P2;PMS_P1;PMS_P2;Temp;Humidity;BMP_temperature;BMP_pressure;BME280_temperature;BME280_humidity;BME280_pressure;Samples;Min_cycle;Max_cycle;Signal;HPM_P1;HPM_P2
2022/09/30 00:00:22;;;;;;;50.35;46.97;;;;;;;16.60;100.00;100599.59;5012859;28;20392;-85
2022/09/30 00:02:49;;;;;;;50.08;46.97;;;;;;;16.17;100.00;100598.47;5013206;28;20403;-84
2022/09/30 00:05:16;;;;;;;50.50;47.20;;;;;;;15.97;100.00;100601.66;5022259;28;20041;-82
2022/09/30 00:07:43;;;;;;;55.92;52.17;;;;;;;16.38;100.00;100607.63;5018077;28;20443;-84
2022/09/30 00:10:10;;;;;;;48.92;45.72;;;;;;;16.46;100.00;100602.66;5015179;28;20471;-85
2022/09/30 00:12:37;;;;;;;48.05;44.85;;;;;;;15.97;100.00;100607.00;5023265;28;20061;-83
2022/09/30 00:15:06;;;;;;;60.33;56.72;;;;;;;15.57;100.00;100621.31;5020509;28;20493;-83
2022/09/30 00:17:33;;;;;;;51.95;48.55;;;;;;;15.44;100.00;100624.31;5021772;28;20051;-83
2022/09/30 00:20:00;;;;;;;56.03;52.00;;;;;;;15.52;100.00;100629.25;5019781;28;20049;-84
2022/09/30 00:22:27;;;;;;;54.42;50.70;;;;;;;15.58;100.00;100629.13;5023480;28;20045;-85
2022/09/30 00:24:54;;;;;;;55.35;51.45;;;;;;;15.57;100.00;100624.00;5008355;28;20047;-83
2022/09/30 00:27:21;;;;;;;54.08;50.15;;;;;;;15.56;100.00;100625.06;5014032;28;20415;-84
2022/09/30 00:29:48;;;;;;;52.03;48.40;;;;;;;15.65;100.00;100610.22;5021675;28;20050;-87
2022/09/30 00:32:17;;;;;;;52.80;49.05;;;;;;;15.68;100.00;100614.31;5022471;28;20042;-85
2022/09/30 00:34:44;;;;;;;46.08;42.80;;;;;;;14.81;100.00;100615.31;5019127;28;20050;-83
2022/09/30 00:37:13;;;;;;;47.10;43.58;;;;;;;14.92;100.00;100619.00;5013289;28;20046;-85
2022/09/30 00:39:41;;;;;;;46.78;43.47;;;;;;;14.63;100.00;100613.63;5007557;28;20050;-83
2022/09/30 00:42:13;;;;;;;44.15;41.28;;;;;;;14.62;100.00;100612.81;5005335;28;20054;-84
2022/09/30 00:44:51;;;;;;;47.03;43.67;;;;;;;14.89;100.00;100614.97;5021526;28;20372;-85
2022/09/30 00:47:40;;;;;;;48.80;44.95;;;;;;;14.84;100.00;100630.91;5019048;28;20054;-84
2022/09/30 00:50:32;;;;;;;52.25;48.53;;;;;;;14.93;100.00;100621.47;5010872;28;20052;-85
2022/09/30 00:53:08;;;;;;;50.25;46.72;;;;;;;14.59;100.00;100628.50;5020675;28;20060;-83
2022/09/30 00:55:44;;;;;;;49.38;46.08;;;;;;;14.32;100.00;100628.94;5002425;28;20037;-83
2022/09/30 00:58:17;;;;;;;54.22;50.53;;;;;;;14.71;100.00;100628.50;5011820;28;20057;-83
2022/09/30 01:00:43;;;;;;;53.63;49.53;;;;;;;14.86;100.00;100620.78;5009578;28;20046;-85
2022/09/30 01:03:13;;;;;;;51.15;47.55;;;;;;;14.68;100.00;100618.28;5013244;28;20048;-86
2022/09/30 01:05:40;;;;;;;51.40;47.95;;;;;;;14.85;100.00;100624.50;5016103;28;20073;-85
2022/09/30 01:08:08;;;;;;;49.25;45.85;;;;;;;14.52;100.00;100620.59;5018413;28;20099;-85
2022/09/30 01:10:36;;;;;;;46.83;43.35;;;;;;;14.53;100.00;100624.09;5002391;28;20391;-85
2022/09/30 01:13:03;;;;;;;51.80;48.03;;;;;;;14.85;100.00;100619.16;5014244;28;20046;-83
2022/09/30 01:16:05;;;;;;;43.20;40.20;;;;;;;14.64;100.00;100615.22;5019430;28;20049;-83
2022/09/30 01:18:47;;;;;;;44.60;41.33;;;;;;;14.67;100.00;100617.44;5018154;28;20079;-84
2022/09/30 01:21:58;;;;;;;46.38;42.80;;;;;;;14.45;100.00;100619.88;5019744;28;20127;-85
2022/09/30 01:24:47;;;;;;;46.25;42.83;;;;;;;14.40;100.00;100622.44;4967251;28;20422;-83
2022/09/30 01:27:42;;;;;;;53.80;50.17;;;;;;;14.91;100.00;100628.09;5012048;28;20049;-84
2022/09/30 01:30:12;;;;;;;54.63;50.90;;;;;;;14.81;100.00;100632.19;5013078;28;20505;-85
2022/09/30 01:33:15;;;;;;;52.20;48.28;;;;;;;14.72;100.00;100624.75;5010973;28;20051;-83
2022/09/30 01:36:06;;;;;;;49.20;45.90;;;;;;;14.70;100.00;100624.97;5014529;28;20056;-84
2022/09/30 01:38:45;;;;;;;50.25;46.95;;;;;;;14.60;100.00;100624.78;5019096;28;20053;-84
2022/09/30 01:41:24;;;;;;;48.55;45.10;;;;;;;14.49;100.00;100636.25;5008750;28;20045;-84
2022/09/30 01:44:03;;;;;;;46.83;43.67;;;;;;;14.34;100.00;100634.88;5018039;28;20049;-85
2022/09/30 01:46:36;;;;;;;46.92;43.80;;;;;;;14.40;100.00;100641.97;5012262;28;20072;-83
2022/09/30 01:49:11;;;;;;;48.67;45.47;;;;;;;14.31;100.00;100639.84;5025366;28;20053;-84
2022/09/30 01:51:43;;;;;;;45.92;42.80;;;;;;;13.96;100.00;100649.47;5015526;28;20037;-84
2022/09/30 01:54:18;;;;;;;47.03;43.58;;;;;;;14.23;100.00;100643.69;5011107;28;20069;-85
2022/09/30 01:56:48;;;;;;;57.10;53.08;;;;;;;13.86;100.00;100645.75;5003937;28;20460;-84
2022/09/30 01:59:21;;;;;;;52.05;48.25;;;;;;;14.19;100.00;100645.19;5016641;28;20046;-85
2022/09/30 02:01:53;;;;;;;52.72;48.97;;;;;;;14.37;100.00;100637.09;5117378;23;20054;-84
2022/09/30 02:04:25;;;;;;;48.75;45.35;;;;;;;13.91;100.00;100630.66;4991758;28;20057;-86
2022/09/30 02:06:58;;;;;;;62.05;57.97;;;;;;;14.00;100.00;100624.97;4990657;28;20132;-83
2022/09/30 02:09:29;;;;;;;55.50;51.55;;;;;;;13.66;100.00;100627.34;4983552;28;20042;-84
2022/09/30 02:12:03;;;;;;;68.10;63.90;;;;;;;14.01;100.00;100635.44;4994281;28;20054;-85
2022/09/30 02:14:37;;;;;;;50.00;46.55;;;;;;;13.61;100.00;100640.56;4998733;28;20047;-84
2022/09/30 02:17:09;;;;;;;57.75;53.35;;;;;;;13.82;100.00;100636.56;4992766;28;20043;-85
2022/09/30 02:19:40;;;;;;;50.28;46.53;;;;;;;14.21;100.00;100640.44;4999045;28;20042;-85
2022/09/30 02:22:15;;;;;;;57.28;53.22;;;;;;;14.33;100.00;100643.94;4993407;28;20482;-85
2022/09/30 02:24:44;;;;;;;45.35;42.15;;;;;;;14.12;100.00;100642.63;4981227;28;20054;-85
2022/09/30 02:27:18;;;;;;;42.53;39.53;;;;;;;14.05;100.00;100638.47;4985553;28;20126;-86
2022/09/30 02:29:50;;;;;;;45.75;41.75;;;;;;;13.76;100.00;100664.97;4995427;28;20050;-83
2022/09/30 02:32:23;;;;;;;43.50;39.83;;;;;;;13.72;100.00;100653.94;4992487;28;20078;-83
2022/09/30 02:34:54;;;;;;;44.08;40.80;;;;;;;14.07;100.00;100660.38;4997598;28;20054;-85
2022/09/30 02:37:27;;;;;;;45.65;42.20;;;;;;;14.19;100.00;100656.72;4989147;28;20063;-85
2022/09/30 02:40:01;;;;;;;47.80;44.67;;;;;;;13.95;100.00;100655.06;4989471;28;20050;-85
2022/09/30 02:42:30;;;;;;;51.50;48.13;;;;;;;13.53;100.00;100663.06;4990942;28;20050;-83
2022/09/30 02:45:01;;;;;;;47.80;44.47;;;;;;;13.56;100.00;100672.47;4992712;28;20149;-85
2022/09/30 02:47:34;;;;;;;47.95;44.95;;;;;;;13.25;100.00;100668.94;4997375;28;20049;-84
2022/09/30 02:50:06;;;;;;;48.55;45.15;;;;;;;13.65;100.00;100668.44;5002299;28;20081;-84
2022/09/30 02:52:45;;;;;;;51.20;47.90;;;;;;;13.77;100.00;100663.94;4995324;28;20487;-84
2022/09/30 02:55:19;;;;;;;53.80;50.22;;;;;;;13.79;100.00;100658.38;4989508;28;20065;-84
2022/09/30 02:57:57;;;;;;;40.42;37.63;;;;;;;13.24;100.00;100668.09;4999997;28;20050;-84
2022/09/30 03:00:24;;;;;;;42.97;39.85;;;;;;;13.39;100.00;100658.94;4992818;28;20050;-84
2022/09/30 03:02:57;;;;;;;44.40;41.15;;;;;;;13.64;100.00;100656.13;5009997;28;20046;-84
2022/09/30 03:05:24;;;;;;;44.83;41.83;;;;;;;13.55;100.00;100663.63;5013948;28;20042;-83
2022/09/30 03:07:53;;;;;;;40.95;37.80;;;;;;;13.26;100.00;100666.06;5022166;28;20045;-84
2022/09/30 03:10:20;;;;;;;40.97;37.83;;;;;;;12.71;100.00;100665.22;5010451;28;20077;-85
2022/09/30 03:13:06;;;;;;;51.28;47.35;;;;;;;13.32;100.00;100668.88;5008817;28;20042;-85
2022/09/30 03:15:46;;;;;;;48.80;45.30;;;;;;;13.43;100.00;100673.44;5014560;28;20053;-86
2022/09/30 03:18:35;;;;;;;46.08;42.90;;;;;;;12.88;100.00;100674.28;5014550;28;20045;-85
2022/09/30 03:21:08;;;;;;;47.42;43.83;;;;;;;12.83;100.00;100674.97;5005348;28;20061;-84
2022/09/30 03:24:13;;;;;;;47.33;43.67;;;;;;;13.02;100.00;100689.09;5008221;28;20042;-85
2022/09/30 03:26:52;;;;;;;50.92;47.53;;;;;;;13.25;100.00;100677.78;4985358;28;20461;-84
2022/09/30 03:29:26;;;;;;;44.85;41.35;;;;;;;12.99;100.00;100678.88;5012474;28;20118;-84
2022/09/30 03:32:05;;;;;;;51.28;47.63;;;;;;;13.01;100.00;100673.31;5012732;28;20053;-85
2022/09/30 03:34:38;;;;;;;48.22;44.80;;;;;;;12.92;100.00;100685.31;5014041;28;20053;-86
2022/09/30 03:37:16;;;;;;;48.58;44.97;;;;;;;13.00;100.00;100680.50;5014852;28;20062;-84
2022/09/30 03:39:55;;;;;;;45.33;41.75;;;;;;;12.76;100.00;100679.53;5008361;28;20061;-83
2022/09/30 03:42:29;;;;;;;55.38;51.67;;;;;;;12.92;100.00;100679.97;5006807;28;20101;-85
2022/09/30 03:45:04;;;;;;;51.17;47.15;;;;;;;12.97;100.00;100683.59;5016825;28;20495;-84
2022/09/30 03:47:34;;;;;;;44.38;41.05;;;;;;;12.87;100.00;100677.19;5012558;28;20060;-83
2022/09/30 03:50:08;;;;;;;43.92;40.92;;;;;;;12.83;100.00;100684.81;5016536;28;20471;-84
2022/09/30 03:52:36;;;;;;;46.72;43.53;;;;;;;12.98;100.00;100677.25;5010389;28;20045;-84
2022/09/30 03:55:06;;;;;;;65.90;61.65;;;;;;;13.04;100.00;100673.69;5006573;28;20050;-83
2022/09/30 03:57:35;;;;;;;44.03;41.03;;;;;;;12.98;100.00;100677.25;5012725;28;20125;-82
2022/09/30 04:00:02;;;;;;;45.72;42.63;;;;;;;12.49;100.00;100664.84;5009034;28;20043;-83
2022/09/30 04:02:29;;;;;;;39.35;36.55;;;;;;;11.94;100.00;100675.34;5009995;28;20050;-84
2022/09/30 04:04:56;;;;;;;43.40;40.25;;;;;;;13.07;100.00;100680.41;5011023;28;20054;-85
2022/09/30 04:07:23;;;;;;;39.40;36.60;;;;;;;12.75;100.00;100683.25;5014152;28;20073;-83
2022/09/30 04:09:50;;;;;;;36.22;33.63;;;;;;;12.04;100.00;100686.31;5006518;28;20402;-86
2022/09/30 04:12:17;;;;;;;42.22;38.97;;;;;;;12.70;100.00;100682.25;5007788;28;20502;-83
2022/09/30 04:14:45;;;;;;;38.75;35.60;;;;;;;12.83;100.00;100674.16;5012480;28;20057;-85
2022/09/30 04:17:12;;;;;;;37.08;34.47;;;;;;;12.50;100.00;100680.63;5012641;28;20046;-85
2022/09/30 04:19:39;;;;;;;40.30;37.30;;;;;;;12.68;100.00;100665.66;5011837;28;20477;-86
2022/09/30 04:22:06;;;;;;;41.70;39.20;;;;;;;12.67;100.00;100667.53;5013907;28;20056;-86
2022/09/30 04:24:33;;;;;;;38.00;35.20;;;;;;;12.70;100.00;100676.94;4999614;28;20485;-84
2022/09/30 04:27:00;;;;;;;39.00;35.88;;;;;;;12.51;100.00;100676.09;5014261;28;20124;-85
2022/09/30 04:29:27;;;;;;;37.70;35.00;;;;;;;12.61;100.00;100671.88;5018393;28;20101;-85
2022/09/30 04:31:56;;;;;;;36.75;34.10;;;;;;;12.83;100.00;100679.47;5016693;28;20045;-84
2022/09/30 04:34:23;;;;;;;36.38;33.53;;;;;;;12.85;100.00;100680.06;5016194;28;20057;-84
2022/09/30 04:36:50;;;;;;;38.05;35.35;;;;;;;12.82;100.00;100689.31;5011038;28;20046;-85
2022/09/30 04:39:16;;;;;;;36.88;34.17;;;;;;;12.93;100.00;100693.09;5007078;28;20054;-84
2022/09/30 04:41:43;;;;;;;37.45;34.25;;;;;;;12.89;100.00;100701.75;5011850;28;20060;-84
2022/09/30 04:44:10;;;;;;;39.40;36.38;;;;;;;13.23;100.00;100703.81;5011504;28;20055;-86
2022/09/30 04:46:37;;;;;;;41.88;38.55;;;;;;;13.31;100.00;100696.59;5009055;28;20453;-84
2022/09/30 04:49:07;;;;;;;41.58;38.58;;;;;;;13.41;100.00;100711.03;5015833;28;20053;-85
2022/09/30 04:51:34;;;;;;;43.20;39.80;;;;;;;13.57;100.00;100703.44;5007229;28;20072;-85
2022/09/30 04:54:01;;;;;;;42.97;39.72;;;;;;;13.56;100.00;100707.97;5008836;28;20080;-85
2022/09/30 04:56:28;;;;;;;41.65;38.65;;;;;;;13.65;100.00;100709.28;5015184;28;20050;-84
2022/09/30 04:58:56;;;;;;;43.42;40.72;;;;;;;14.29;100.00;100712.22;4993974;28;20060;-84
2022/09/30 05:01:23;;;;;;;41.55;38.42;;;;;;;14.53;100.00;100723.78;5002299;28;20046;-85
2022/09/30 05:03:50;;;;;;;43.40;40.50;;;;;;;14.71;100.00;100736.22;5013614;28;20038;-85
2022/09/30 05:06:19;;;;;;;42.85;40.00;;;;;;;14.85;100.00;100723.41;5008865;28;20177;-86
2022/09/30 05:08:47;;;;;;;46.75;43.83;;;;;;;15.00;100.00;100734.44;5014707;28;20455;-85
2022/09/30 05:11:17;;;;;;;48.45;45.47;;;;;;;15.05;100.00;100726.53;5013788;28;20046;-85
2022/09/30 05:13:44;;;;;;;46.38;43.15;;;;;;;15.33;100.00;100731.13;5004176;28;20073;-84
2022/09/30 05:16:13;;;;;;;46.65;43.08;;;;;;;14.74;100.00;100737.63;5005659;28;20057;-86
2022/09/30 05:18:44;;;;;;;48.00;44.70;;;;;;;14.88;100.00;100731.78;5010354;28;20042;-83
2022/09/30 05:21:12;;;;;;;45.97;42.58;;;;;;;15.09;100.00;100729.56;5006824;28;20065;-85
2022/09/30 05:23:40;;;;;;;47.85;44.53;;;;;;;14.99;100.00;100732.84;5023557;28;20057;-84
2022/09/30 05:26:08;;;;;;;53.05;49.72;;;;;;;15.26;100.00;100745.72;5004899;28;20058;-84
2022/09/30 05:28:35;;;;;;;47.25;43.53;;;;;;;15.37;100.00;100744.03;5009763;28;20038;-85
2022/09/30 05:31:05;;;;;;;51.00;47.70;;;;;;;15.49;100.00;100748.34;5011155;28;20056;-85
2022/09/30 05:33:34;;;;;;;54.15;50.85;;;;;;;15.40;100.00;100743.56;5012415;28;20128;-84
2022/09/30 05:36:02;;;;;;;51.42;48.20;;;;;;;15.40;100.00;100738.22;5017931;28;20125;-83
2022/09/30 05:38:29;;;;;;;52.30;48.70;;;;;;;15.65;100.00;100738.72;5005597;28;20046;-84
2022/09/30 05:40:57;;;;;;;54.05;50.05;;;;;;;15.77;100.00;100730.69;5004978;28;20050;-85
2022/09/30 05:43:25;;;;;;;49.45;46.13;;;;;;;15.89;100.00;100731.44;5009616;28;20050;-85
2022/09/30 05:45:53;;;;;;;48.45;44.80;;;;;;;15.97;100.00;100739.06;5003614;28;20046;-85
2022/09/30 05:48:20;;;;;;;53.75;49.90;;;;;;;16.31;100.00;100740.97;5003373;28;20060;-85
2022/09/30 05:50:49;;;;;;;58.55;55.25;;;;;;;16.25;100.00;100745.44;5007151;28;20047;-84
2022/09/30 05:53:18;;;;;;;56.28;52.80;;;;;;;16.39;100.00;100751.28;5007163;28;20065;-86
2022/09/30 05:55:49;;;;;;;64.03;56.05;;;;;;;16.50;100.00;100763.81;5006719;28;20046;-84
2022/09/30 05:58:18;;;;;;;51.15;48.15;;;;;;;16.63;100.00;100754.63;5005430;28;20058;-85
2022/09/30 06:00:46;;;;;;;46.72;43.72;;;;;;;16.97;100.00;100751.91;5002975;28;20054;-84
2022/09/30 06:03:13;;;;;;;48.35;45.03;;;;;;;16.96;100.00;100761.84;5013557;28;20042;-84
2022/09/30 06:05:41;;;;;;;48.90;45.92;;;;;;;17.20;100.00;100761.63;5008685;28;20117;-86
2022/09/30 06:08:10;;;;;;;42.88;40.28;;;;;;;17.34;100.00;100761.00;5019026;28;20050;-84
2022/09/30 06:10:40;;;;;;;47.10;44.30;;;;;;;17.55;100.00;100763.91;5006289;28;20275;-84
2022/09/30 06:13:07;;;;;;;44.60;41.85;;;;;;;17.71;100.00;100770.28;5012952;28;20050;-83
2022/09/30 06:15:36;;;;;;;42.95;40.00;;;;;;;17.87;100.00;100764.03;5008411;28;20398;-84
2022/09/30 06:18:04;;;;;;;40.17;37.55;;;;;;;18.00;100.00;100771.72;5013712;28;20482;-86
2022/09/30 06:20:34;;;;;;;42.15;39.58;;;;;;;18.06;100.00;100775.25;5015068;28;20049;-84
2022/09/30 06:23:02;;;;;;;40.25;37.55;;;;;;;18.67;100.00;100775.78;5011879;28;20053;-86
2022/09/30 06:25:30;;;;;;;38.72;36.63;;;;;;;18.67;100.00;100778.47;5015919;28;20045;-84
2022/09/30 06:27:58;;;;;;;38.22;36.10;;;;;;;18.79;100.00;100769.41;5002998;28;20046;-85
2022/09/30 06:30:25;;;;;;;35.30;33.20;;;;;;;18.98;100.00;100784.88;5011563;28;20050;-84
2022/09/30 06:32:56;;;;;;;35.60;33.50;;;;;;;19.49;100.00;100784.31;5014612;28;20049;-85
2022/09/30 06:35:27;;;;;;;38.05;35.72;;;;;;;19.57;100.00;100777.59;5012156;28;20061;-84
2022/09/30 06:37:54;;;;;;;37.83;35.42;;;;;;;19.51;100.00;100786.75;5012082;28;20061;-84
2022/09/30 06:40:21;;;;;;;40.88;38.38;;;;;;;19.64;100.00;100778.19;5008995;28;20053;-84
2022/09/30 06:42:49;;;;;;;47.80;45.13;;;;;;;19.93;100.00;100777.75;5005064;28;20060;-84
2022/09/30 06:45:18;;;;;;;41.95;39.65;;;;;;;20.01;100.00;100786.13;5006789;28;20065;-84
2022/09/30 06:47:47;;;;;;;38.47;36.03;;;;;;;20.17;100.00;100788.84;5014877;28;20042;-84
2022/09/30 06:50:15;;;;;;;41.42;39.15;;;;;;;20.30;100.00;100802.63;5012586;28;20042;-86
2022/09/30 06:52:42;;;;;;;36.83;34.88;;;;;;;20.67;100.00;100804.25;5024130;28;20077;-85
2022/09/30 06:55:10;;;;;;;37.08;35.03;;;;;;;20.84;100.00;100817.44;5016126;28;20053;-83
2022/09/30 06:57:37;;;;;;;37.47;34.95;;;;;;;20.95;100.00;100799.34;5009007;28;20068;-83
2022/09/30 07:00:04;;;;;;;38.25;35.80;;;;;;;21.31;100.00;100796.56;5016864;28;20137;-83
2022/09/30 07:02:33;;;;;;;37.55;35.65;;;;;;;21.24;100.00;100794.97;5006454;28;20478;-85
2022/09/30 07:05:00;;;;;;;36.50;34.50;;;;;;;21.70;100.00;100799.41;5016165;28;20077;-84
2022/09/30 07:07:28;;;;;;;35.95;33.80;;;;;;;21.90;100.00;100791.16;5021537;28;20066;-83
2022/09/30 07:09:55;;;;;;;37.40;35.08;;;;;;;21.91;100.00;100790.09;5007863;28;20042;-85
2022/09/30 07:12:22;;;;;;;37.30;34.97;;;;;;;22.09;100.00;100785.13;5006424;28;20057;-84
2022/09/30 07:14:50;;;;;;;37.65;35.45;;;;;;;22.30;100.00;100791.19;5007484;28;20123;-87
2022/09/30 07:17:16;;;;;;;36.95;34.40;;;;;;;22.79;100.00;100799.19;5009567;28;20108;-85
2022/09/30 07:19:43;;;;;;;38.28;36.00;;;;;;;22.33;100.00;100813.09;5010676;28;20050;-85
2022/09/30 07:22:33;;;;;;;37.08;34.50;;;;;;;22.73;100.00;100818.47;5001208;28;20054;-87
2022/09/30 07:25:03;;;;;;;39.38;36.78;;;;;;;22.99;100.00;100800.09;5004881;28;20057;-80
2022/09/30 07:27:33;;;;;;;41.28;39.17;;;;;;;23.31;100.00;100810.31;5030434;28;20429;-82
2022/09/30 07:30:01;;;;;;;39.38;37.00;;;;;;;23.47;100.00;100808.22;5026856;28;20056;-81
2022/09/30 07:32:28;;;;;;;38.75;36.65;;;;;;;23.59;100.00;100808.59;5027638;28;20111;-82
2022/09/30 07:34:55;;;;;;;36.25;34.17;;;;;;;24.46;100.00;100810.13;5026335;28;20054;-81
2022/09/30 07:37:24;;;;;;;36.22;34.28;;;;;;;24.54;100.00;100811.31;5028685;28;20087;-81
2022/09/30 07:39:52;;;;;;;40.05;36.75;;;;;;;24.98;100.00;100816.25;5020027;28;20054;-82
2022/09/30 07:42:21;;;;;;;51.92;46.63;;;;;;;25.36;100.00;100829.72;5026916;28;20053;-81
2022/09/30 07:44:49;;;;;;;116.18;72.28;;;;;;;25.22;100.00;100821.53;5021589;28;20459;-82
2022/09/30 07:47:16;;;;;;;40.75;37.20;;;;;;;25.31;100.00;100827.88;5026256;28;20473;-81
2022/09/30 07:49:43;;;;;;;45.53;41.35;;;;;;;25.36;100.00;100821.56;5027579;28;20055;-81
2022/09/30 07:52:11;;;;;;;43.40;39.38;;;;;;;25.60;100.00;100824.06;5024026;28;20042;-81
2022/09/30 07:54:39;;;;;;;34.17;31.90;;;;;;;25.85;100.00;100828.16;5032094;28;20064;-81
2022/09/30 07:57:07;;;;;;;36.22;33.42;;;;;;;25.91;100.00;100826.94;5024203;28;20057;-82
2022/09/30 07:59:38;;;;;;;35.03;32.30;;;;;;;26.23;100.00;100828.66;5032461;28;20041;-82
2022/09/30 08:02:06;;;;;;;33.60;31.45;;;;;;;26.68;100.00;100833.28;5021371;28;20762;-82
2022/09/30 08:04:33;;;;;;;35.58;33.13;;;;;;;27.06;100.00;100832.88;5026638;28;20045;-82
2022/09/30 08:07:02;;;;;;;35.33;32.78;;;;;;;27.07;100.00;100831.75;5025459;28;20055;-81
2022/09/30 08:09:29;;;;;;;34.38;31.98;;;;;;;27.94;92.52;100826.56;5024812;28;20605;-82
2022/09/30 08:11:56;;;;;;;33.80;31.77;;;;;;;28.20;91.72;100815.63;5021538;28;20054;-81
2022/09/30 08:14:25;;;;;;;34.47;32.25;;;;;;;26.26;98.43;100827.22;5025711;28;20045;-82
2022/09/30 08:16:55;;;;;;;37.67;35.45;;;;;;;26.33;100.00;100829.53;5023149;28;20485;-82
2022/09/30 08:19:24;;;;;;;36.30;34.30;;;;;;;26.49;97.11;100831.59;5024042;28;20474;-81
2022/09/30 08:21:52;;;;;;;33.75;32.08;;;;;;;26.21;93.72;100838.25;5023090;28;20046;-81
2022/09/30 08:24:21;;;;;;;35.40;33.53;;;;;;;26.15;99.12;100843.00;5023412;28;20061;-81
2022/09/30 08:26:48;;;;;;;34.17;32.13;;;;;;;26.23;88.12;100852.31;5023465;28;20155;-81
2022/09/30 08:29:15;;;;;;;32.47;30.52;;;;;;;27.11;87.93;100844.44;5026751;28;20057;-81
2022/09/30 08:31:42;;;;;;;35.72;33.42;;;;;;;27.67;89.42;100852.19;5023191;28;20089;-82
2022/09/30 08:34:10;;;;;;;36.25;34.03;;;;;;;26.20;87.87;100856.50;5018121;28;20054;-81
2022/09/30 08:36:37;;;;;;;35.05;32.95;;;;;;;27.76;83.30;100861.19;5030070;28;20107;-80
2022/09/30 08:39:04;;;;;;;33.92;31.67;;;;;;;26.43;87.05;100865.47;5026295;28;20057;-82
2022/09/30 08:42:00;;;;;;;39.33;37.22;;;;;;;25.72;92.41;100865.13;5027988;28;20111;-79
2022/09/30 08:44:41;;;;;;;41.15;38.67;;;;;;;26.08;87.16;100860.84;5015743;28;20113;-81
2022/09/30 08:47:22;;;;;;;40.92;38.72;;;;;;;26.48;95.23;100851.75;5025063;28;20053;-82
2022/09/30 08:50:01;;;;;;;36.47;34.47;;;;;;;28.03;78.12;100850.00;5028138;28;20275;-81
2022/09/30 08:52:32;;;;;;;35.95;33.95;;;;;;;28.02;97.97;100850.31;5016846;28;20053;-83
2022/09/30 08:55:00;;;;;;;39.75;37.20;;;;;;;28.69;67.28;100859.97;5031542;28;20119;-82
2022/09/30 08:57:34;;;;;;;35.47;33.47;;;;;;;28.22;74.08;100857.88;5022188;28;20052;-82
2022/09/30 09:00:08;;;;;;;36.55;34.45;;;;;;;27.69;65.07;100853.47;5022106;28;20054;-82
2022/09/30 09:02:43;;;;;;;37.50;35.40;;;;;;;26.95;73.08;100862.31;5023602;28;20057;-82
2022/09/30 09:05:22;;;;;;;35.33;33.08;;;;;;;26.81;68.99;100864.28;5013241;28;20046;-81
2022/09/30 09:07:55;;;;;;;34.25;32.38;;;;;;;28.61;64.86;100858.84;5013047;28;20070;-78
2022/09/30 09:10:36;;;;;;;35.65;33.38;;;;;;;28.29;63.50;100850.03;5002766;28;20122;-80
2022/09/30 09:13:16;;;;;;;35.10;33.25;;;;;;;27.13;72.94;100858.53;5007956;28;20133;-80
2022/09/30 09:15:52;;;;;;;33.42;31.40;;;;;;;28.49;58.94;100858.69;5008636;28;20478;-80
2022/09/30 09:18:50;;;;;;;33.30;31.25;;;;;;;27.62;64.85;100858.56;5013158;28;20076;-79
2022/09/30 09:21:23;;;;;;;35.60;33.60;;;;;;;26.70;73.48;100861.84;4999472;28;20057;-81
2022/09/30 09:23:52;;;;;;;36.90;34.80;;;;;;;27.24;80.85;100866.50;5008288;28;20115;-80
2022/09/30 09:26:19;;;;;;;37.20;34.95;;;;;;;28.06;82.80;100875.88;5013327;28;20049;-79
2022/09/30 09:29:00;;;;;;;37.80;35.90;;;;;;;27.74;69.63;100874.34;5017098;28;20049;-79
2022/09/30 09:31:27;;;;;;;34.60;32.60;;;;;;;29.43;66.12;100865.00;5012351;28;20058;-79
2022/09/30 09:34:00;;;;;;;36.03;34.22;;;;;;;28.53;71.23;100865.94;5021283;28;20046;-79
2022/09/30 09:36:42;;;;;;;35.88;33.83;;;;;;;26.92;68.49;100860.19;5012547;28;20051;-80
2022/09/30 09:39:22;;;;;;;;;;;;;;;27.60;85.30;100869.81;5017052;28;20049;-79
2022/09/30 09:42:00;;;;;;;36.00;33.80;;;;;;;27.91;59.80;100863.50;5019730;28;19932;-79
2022/09/30 09:44:33;;;;;;;35.88;33.97;;;;;;;27.22;69.53;100868.72;5024285;28;20045;-78
2022/09/30 09:47:04;;;;;;;37.28;35.17;;;;;;;27.85;62.16;100868.28;5020573;28;20039;-79
2022/09/30 09:49:37;;;;;;;37.63;35.50;;;;;;;29.84;54.08;100865.47;5024362;28;20081;-82
2022/09/30 09:52:35;;;;;;;36.85;34.85;;;;;;;29.91;50.62;100863.00;5022844;28;20045;-78
2022/09/30 09:55:02;;;;;;;34.38;32.58;;;;;;;28.38;56.92;100860.13;5039190;28;20478;-80
2022/09/30 09:57:31;;;;;;;34.85;32.97;;;;;;;28.39;58.61;100859.00;5024294;28;20129;-79
2022/09/30 10:00:41;;;;;;;38.03;35.83;;;;;;;30.10;58.64;100866.06;5021042;28;20418;-80
2022/09/30 10:03:00;;;;;;;37.45;35.38;;;;;;;29.90;61.44;100862.19;5016004;28;20470;-80
2022/09/30 10:05:28;;;;;;;35.25;33.40;;;;;;;29.73;57.40;100866.97;5029184;28;20065;-79
2022/09/30 10:08:09;;;;;;;40.63;38.25;;;;;;;30.49;53.86;100858.50;5026951;28;20439;-79
2022/09/30 10:10:45;;;;;;;34.80;32.88;;;;;;;30.71;55.72;100853.75;5010946;28;20053;-78
2022/09/30 10:13:20;;;;;;;37.25;35.25;;;;;;;30.49;49.21;100847.53;5024877;28;20042;-79
2022/09/30 10:15:48;;;;;;;40.95;38.50;;;;;;;29.21;55.30;100863.34;5008986;28;20061;-78
2022/09/30 10:18:23;;;;;;;37.83;35.92;;;;;;;30.74;51.71;100853.91;5023733;28;20041;-79
2022/09/30 10:20:53;;;;;;;37.05;34.90;;;;;;;30.61;49.65;100856.94;5020070;28;20135;-79
2022/09/30 10:23:28;;;;;;;38.53;36.42;;;;;;;29.73;49.72;100862.31;5027784;28;20054;-80
2022/09/30 10:25:57;;;;;;;38.38;36.22;;;;;;;31.99;45.91;100854.41;5022134;28;20065;-80
2022/09/30 10:28:27;;;;;;;36.55;34.15;;;;;;;33.35;40.05;100847.03;5032089;28;20050;-77
2022/09/30 10:31:01;;;;;;;37.75;35.40;;;;;;;33.24;40.66;100848.72;5021276;28;20054;-79
2022/09/30 10:33:31;;;;;;;42.55;40.35;;;;;;;32.98;38.92;100841.03;5023280;28;20042;-80
2022/09/30 10:36:08;;;;;;;40.90;38.80;;;;;;;32.06;41.07;100849.13;5027442;28;21171;-80
2022/09/30 10:38:45;;;;;;;42.40;40.00;;;;;;;31.69;43.33;100842.91;5014169;28;20045;-80
2022/09/30 10:41:13;;;;;;;38.85;36.75;;;;;;;32.05;41.89;100841.25;5013859;28;20057;-80
2022/09/30 10:43:43;;;;;;;43.42;40.92;;;;;;;31.43;43.30;100846.81;5019929;28;20120;-80
2022/09/30 10:46:10;;;;;;;39.83;37.67;;;;;;;30.96;48.69;100846.44;5017073;28;20049;-81
2022/09/30 10:48:38;;;;;;;37.33;35.22;;;;;;;32.21;42.97;100836.59;5027244;28;20053;-79
2022/09/30 10:51:19;;;;;;;37.38;34.97;;;;;;;32.68;42.53;100830.44;5028958;28;20037;-79
2022/09/30 10:53:48;;;;;;;41.30;38.90;;;;;;;34.06;39.65;100828.56;5018150;28;20049;-77
2022/09/30 10:56:33;;;;;;;37.58;35.17;;;;;;;33.17;42.32;100824.59;5019778;28;20046;-80
2022/09/30 10:59:03;;;;;;;45.40;42.55;;;;;;;33.10;39.85;100821.66;5030083;28;20368;-79
2022/09/30 11:01:35;;;;;;;43.72;41.53;;;;;;;30.91;43.46;100825.50;5026309;28;20148;-79
2022/09/30 11:04:08;;;;;;;40.25;37.88;;;;;;;31.41;41.11;100821.69;5030799;28;20129;-78
2022/09/30 11:06:40;;;;;;;37.60;35.60;;;;;;;31.73;44.45;100827.31;5025342;28;20050;-79
2022/09/30 11:09:14;;;;;;;39.80;37.60;;;;;;;32.67;42.97;100834.31;5004486;28;20047;-78
2022/09/30 11:11:46;;;;;;;35.08;33.08;;;;;;;32.30;39.69;100852.94;5020855;28;20125;-79
2022/09/30 11:14:24;;;;;;;33.45;31.55;;;;;;;32.36;40.06;100846.81;5018958;28;20065;-80
2022/09/30 11:17:02;;;;;;;35.90;33.80;;;;;;;33.56;39.81;100852.28;5024239;28;20068;-79
2022/09/30 11:19:32;;;;;;;35.35;33.30;;;;;;;32.94;37.77;100851.13;5025444;28;20092;-78
2022/09/30 11:22:04;;;;;;;38.58;36.45;;;;;;;31.27;42.06;100854.09;5023327;28;20050;-81
2022/09/30 11:24:39;;;;;;;35.92;33.70;;;;;;;31.20;39.87;100857.44;5025728;28;20116;-80